createdAt,value
2022-11-23T00:01:17.699Z,9.40
2022-11-23T00:03:46.809Z,9.40
2022-11-23T00:06:15.101Z,9.40
2022-11-23T00:08:44.295Z,9.50
2022-11-23T00:11:12.921Z,9.50
2022-11-23T00:13:41.768Z,9.50
2022-11-23T00:18:59.629Z,9.50
2022-11-23T00:21:29.084Z,9.50
2022-11-23T00:23:57.394Z,9.50
2022-11-23T00:26:25.483Z,9.50
2022-11-23T00:28:53.693Z,9.50
2022-11-23T00:31:22.439Z,9.50
2022-11-23T00:33:51.742Z,9.50
2022-11-23T00:36:21.762Z,9.50
2022-11-23T00:38:51.084Z,9.50
2022-11-23T00:41:21.486Z,9.50
2022-11-23T00:43:50.117Z,9.50
2022-11-23T00:46:20.558Z,9.50
2022-11-23T00:48:50.067Z,9.50
2022-11-23T00:51:21.878Z,9.50
2022-11-23T00:53:51.360Z,9.50
2022-11-23T00:56:21.578Z,9.50
2022-11-23T00:58:50.707Z,9.50
2022-11-23T01:01:20.775Z,9.50
2022-11-23T01:03:50.314Z,9.40
2022-11-23T01:06:22.331Z,9.50
2022-11-23T01:08:51.786Z,9.50
2022-11-23T01:11:20.875Z,9.40
2022-11-23T01:13:49.674Z,9.40
2022-11-23T01:16:24.073Z,9.40
2022-11-23T01:18:54.545Z,9.40
2022-11-23T01:21:24.487Z,9.40
2022-11-23T01:23:52.913Z,9.30
2022-11-23T01:26:21.294Z,9.30
2022-11-23T01:28:50.134Z,9.30
2022-11-23T01:31:20.396Z,9.30
2022-11-23T01:33:48.739Z,9.30
2022-11-23T01:36:18.819Z,9.20
2022-11-23T01:38:49.526Z,9.20
2022-11-23T01:41:20.216Z,9.10
2022-11-23T01:43:48.794Z,9.10
2022-11-23T01:46:18.391Z,9.00
2022-11-23T01:48:50.122Z,9.10
2022-11-23T01:51:22.611Z,9.00
2022-11-23T01:53:56.779Z,9.00
2022-11-23T01:56:29.003Z,8.90
2022-11-23T01:58:59.948Z,8.90
2022-11-23T02:01:28.160Z,8.90
2022-11-23T02:04:00.145Z,8.90
2022-11-23T02:06:28.370Z,8.90
2022-11-23T02:08:58.095Z,8.90
2022-11-23T02:11:26.295Z,8.90
2022-11-23T02:13:54.414Z,8.90
2022-11-23T02:16:22.655Z,8.90
2022-11-23T02:18:53.104Z,8.90
2022-11-23T02:21:21.437Z,8.90
2022-11-23T02:23:56.605Z,9.00
2022-11-23T02:26:28.170Z,9.00
2022-11-23T02:29:00.138Z,9.00
2022-11-23T02:31:28.375Z,9.00
2022-11-23T02:33:56.462Z,9.00
2022-11-23T02:36:36.853Z,9.00
2022-11-23T02:39:10.004Z,9.10
2022-11-23T02:41:42.640Z,9.00
2022-11-23T02:44:24.448Z,9.00
2022-11-23T02:46:53.642Z,9.00
2022-11-23T02:49:21.769Z,9.00
2022-11-23T02:51:49.997Z,9.00
2022-11-23T02:54:18.075Z,9.00
2022-11-23T02:56:47.558Z,9.00
2022-11-23T02:59:15.604Z,9.00
2022-11-23T03:01:43.678Z,9.00
2022-11-23T03:04:11.794Z,9.10
2022-11-23T03:06:39.922Z,9.10
2022-11-23T03:09:08.234Z,9.10
2022-11-23T03:11:36.522Z,9.10
2022-11-23T03:14:06.234Z,9.10
2022-11-23T03:16:34.632Z,9.10
2022-11-23T03:19:03.092Z,9.10
2022-11-23T03:21:31.289Z,9.20
2022-11-23T03:23:59.373Z,9.20
2022-11-23T03:26:27.582Z,9.20
2022-11-23T03:28:55.756Z,9.20
2022-11-23T03:31:25.371Z,9.20
2022-11-23T03:33:53.488Z,9.20
2022-11-23T03:36:21.678Z,9.20
2022-11-23T03:38:49.775Z,9.30
2022-11-23T03:41:17.845Z,9.30
2022-11-23T03:43:45.939Z,9.30
2022-11-23T03:46:14.035Z,9.30
2022-11-23T03:48:43.502Z,9.30
2022-11-23T03:51:11.555Z,9.30
2022-11-23T03:53:39.791Z,9.40
2022-11-23T03:56:08.556Z,9.40
2022-11-23T03:58:36.676Z,9.40
2022-11-23T04:01:05.322Z,9.40
2022-11-23T04:03:33.518Z,9.40
2022-11-23T04:06:02.981Z,9.40
2022-11-23T04:08:30.984Z,9.40
2022-11-23T04:10:59.773Z,9.40
2022-11-23T04:13:27.978Z,9.30
2022-11-23T04:15:56.155Z,9.30
2022-11-23T04:18:24.311Z,9.30
2022-11-23T04:20:52.406Z,9.20
2022-11-23T04:23:21.857Z,9.20
2022-11-23T04:25:50.270Z,9.20
2022-11-23T04:28:18.390Z,9.20
2022-11-23T04:30:46.573Z,9.20
2022-11-23T04:33:14.638Z,9.20
2022-11-23T04:35:42.769Z,9.20
2022-11-23T04:38:10.869Z,9.20
2022-11-23T04:40:40.424Z,9.30
2022-11-23T04:43:09.585Z,9.30
2022-11-23T04:45:39.998Z,9.30
2022-11-23T04:48:08.332Z,9.30
2022-11-23T04:50:40.390Z,9.30
2022-11-23T04:53:09.216Z,9.30
2022-11-23T04:55:37.421Z,9.20
2022-11-23T04:58:06.829Z,9.20
2022-11-23T05:00:36.059Z,9.30
2022-11-23T05:03:04.278Z,9.20
2022-11-23T05:05:32.429Z,9.20
2022-11-23T05:08:00.672Z,9.20
2022-11-23T05:10:28.859Z,9.20
2022-11-23T05:12:56.975Z,9.20
2022-11-23T05:15:26.483Z,9.30
2022-11-23T05:17:58.973Z,9.20
2022-11-23T05:20:27.420Z,9.20
2022-11-23T05:22:55.598Z,9.20
2022-11-23T05:25:23.714Z,9.20
2022-11-23T05:27:52.063Z,9.20
2022-11-23T05:30:20.448Z,9.30
2022-11-23T05:32:50.116Z,9.30
2022-11-23T05:35:18.336Z,9.30
2022-11-23T05:37:46.564Z,9.30
2022-11-23T05:40:15.224Z,9.30
2022-11-23T05:42:43.218Z,9.20
2022-11-23T05:45:12.050Z,9.20
2022-11-23T05:47:40.295Z,9.20
2022-11-23T05:50:10.741Z,9.20
2022-11-23T05:52:38.781Z,9.20
2022-11-23T05:55:07.301Z,9.20
2022-11-23T05:57:35.454Z,9.10
2022-11-23T06:00:04.009Z,9.20
2022-11-23T06:02:35.631Z,9.20
2022-11-23T06:05:07.239Z,9.20
2022-11-23T06:07:37.117Z,9.20
2022-11-23T06:10:06.671Z,9.20
2022-11-23T06:12:34.946Z,9.20
2022-11-23T06:15:03.206Z,9.10
2022-11-23T06:17:31.304Z,9.10
2022-11-23T06:19:59.482Z,9.00
2022-11-23T06:22:27.660Z,9.00
2022-11-23T06:24:57.180Z,8.90
2022-11-23T06:27:25.321Z,8.80
2022-11-23T06:29:53.516Z,8.80
2022-11-23T06:32:21.631Z,8.80
2022-11-23T06:34:49.854Z,8.70
2022-11-23T06:37:18.006Z,8.70
2022-11-23T06:39:47.186Z,8.60
2022-11-23T06:42:37.682Z,8.60
2022-11-23T06:45:06.211Z,8.50
2022-11-23T06:47:34.580Z,8.50
2022-11-23T06:50:02.785Z,8.40
2022-11-23T06:52:30.939Z,8.40
2022-11-23T06:54:59.059Z,8.40
2022-11-23T06:57:28.523Z,8.30
2022-11-23T06:59:56.739Z,8.30
2022-11-23T07:02:24.960Z,8.30
2022-11-23T07:04:53.115Z,8.30
2022-11-23T07:07:21.319Z,8.30
2022-11-23T07:09:49.485Z,8.30
2022-11-23T07:12:20.547Z,8.40
2022-11-23T07:14:50.175Z,8.40
2022-11-23T07:17:18.271Z,8.50
2022-11-23T07:19:46.496Z,8.50
2022-11-23T07:22:14.710Z,8.60
2022-11-23T07:24:47.187Z,8.60
2022-11-23T07:27:18.293Z,8.60
2022-11-23T07:29:46.449Z,8.70
2022-11-23T07:32:15.992Z,8.80
2022-11-23T07:34:44.351Z,8.80
2022-11-23T07:37:12.442Z,8.80
2022-11-23T07:39:56.839Z,8.90
2022-11-23T07:42:38.164Z,9.00
2022-11-23T07:45:12.412Z,9.00
2022-11-23T07:47:41.839Z,9.00
2022-11-23T07:50:11.938Z,9.00
2022-11-23T07:52:40.985Z,9.00
2022-11-23T07:55:10.082Z,9.00
2022-11-23T07:57:38.147Z,9.00
2022-11-23T08:00:07.576Z,9.10
2022-11-23T08:02:35.672Z,9.00
2022-11-23T08:05:07.741Z,9.00
2022-11-23T08:07:39.814Z,9.00
2022-11-23T08:10:08.372Z,9.00
2022-11-23T08:12:36.715Z,9.00
2022-11-23T08:15:05.348Z,9.00
2022-11-23T08:17:33.655Z,9.00
2022-11-23T08:20:01.904Z,9.10
2022-11-23T08:22:31.297Z,9.10
2022-11-23T08:24:59.403Z,9.10
2022-11-23T08:27:27.602Z,9.10
2022-11-23T08:29:55.749Z,9.10
2022-11-23T08:32:24.056Z,9.10
2022-11-23T08:34:52.248Z,9.20
2022-11-23T08:37:20.435Z,9.20
2022-11-23T08:39:49.902Z,9.20
2022-11-23T08:42:18.279Z,9.30
2022-11-23T08:44:46.508Z,9.30
2022-11-23T08:47:14.653Z,9.30
2022-11-23T08:49:42.779Z,9.40
2022-11-23T08:52:11.288Z,9.40
2022-11-23T08:54:39.695Z,9.50
2022-11-23T08:57:09.287Z,9.80
2022-11-23T08:59:37.520Z,9.80
2022-11-23T09:02:05.775Z,9.80
2022-11-23T09:04:34.205Z,9.80
2022-11-23T09:07:04.426Z,9.70
2022-11-23T09:09:32.493Z,9.70
2022-11-23T09:12:00.629Z,9.70
2022-11-23T09:14:30.715Z,9.80
2022-11-23T09:17:01.239Z,10.00
2022-11-23T09:19:29.548Z,10.20
2022-11-23T09:21:58.016Z,10.40
2022-11-23T09:24:28.009Z,10.40
2022-11-23T09:26:57.436Z,10.30
2022-11-23T09:29:26.676Z,10.30
2022-11-23T09:31:56.290Z,10.30
2022-11-23T09:34:24.516Z,10.20
2022-11-23T09:36:52.617Z,10.20
2022-11-23T09:39:23.649Z,10.20
2022-11-23T09:42:22.798Z,10.30
2022-11-23T09:45:12.341Z,10.40
2022-11-23T09:48:04.634Z,10.30
2022-11-23T09:50:42.424Z,10.30
2022-11-23T09:53:15.618Z,10.30
2022-11-23T09:55:45.681Z,10.40
2022-11-23T09:58:17.293Z,10.40
2022-11-23T10:00:49.143Z,10.50
2022-11-23T10:03:19.573Z,10.40
2022-11-23T10:05:58.561Z,10.40
2022-11-23T10:08:37.299Z,10.50
2022-11-23T10:11:25.925Z,10.60
2022-11-23T10:14:03.722Z,10.60
2022-11-23T10:16:41.490Z,10.60
2022-11-23T10:19:19.071Z,10.60
2022-11-23T10:21:56.376Z,10.60
2022-11-23T10:24:28.630Z,10.70
2022-11-23T10:26:56.730Z,10.80
2022-11-23T10:29:30.679Z,10.70
2022-11-23T10:31:59.191Z,10.80
2022-11-23T10:34:48.012Z,10.80
2022-11-23T10:37:18.660Z,10.70
2022-11-23T10:39:47.202Z,10.80
2022-11-23T10:42:21.992Z,10.80
2022-11-23T10:44:52.465Z,10.90
2022-11-23T10:47:39.847Z,10.80
2022-11-23T10:50:30.064Z,10.90
2022-11-23T10:53:00.879Z,11.00
2022-11-23T10:55:31.461Z,11.00
2022-11-23T10:58:00.048Z,10.90
2022-11-23T11:00:31.291Z,11.10
2022-11-23T11:03:00.587Z,11.20
2022-11-23T11:06:07.486Z,11.10
2022-11-23T11:08:22.973Z,11.00
2022-11-23T11:10:59.952Z,10.90
2022-11-23T11:13:31.047Z,10.80
2022-11-23T11:16:01.427Z,10.70
2022-11-23T11:18:32.705Z,10.70
2022-11-23T11:21:05.694Z,10.70
2022-11-23T11:23:35.888Z,10.80
2022-11-23T11:26:07.426Z,10.70
2022-11-23T11:28:39.425Z,10.70
2022-11-23T11:31:24.749Z,10.90
2022-11-23T11:33:59.791Z,11.00
2022-11-23T11:36:37.420Z,10.80
2022-11-23T11:39:18.658Z,10.80
2022-11-23T11:41:50.096Z,10.70
2022-11-23T11:44:21.952Z,10.80
2022-11-23T11:46:55.724Z,10.80
2022-11-23T11:49:29.541Z,11.00
2022-11-23T11:52:05.822Z,11.00
2022-11-23T11:54:42.432Z,11.10
2022-11-23T11:57:20.385Z,11.10
2022-11-23T11:59:50.418Z,11.30
2022-11-23T12:02:25.877Z,11.40
2022-11-23T12:05:11.970Z,11.40
2022-11-23T12:07:47.285Z,11.50
2022-11-23T12:10:18.700Z,11.60
2022-11-23T12:12:48.343Z,11.70
2022-11-23T12:15:47.840Z,11.70
2022-11-23T12:18:26.002Z,11.80
2022-11-23T12:21:03.037Z,11.90
2022-11-23T12:23:43.184Z,11.80
2022-11-23T12:26:23.921Z,11.70
2022-11-23T12:29:19.369Z,11.60
2022-11-23T12:31:52.067Z,11.60
2022-11-23T12:34:41.201Z,11.60
2022-11-23T12:37:32.672Z,11.70
2022-11-23T12:40:31.868Z,11.80
2022-11-23T12:43:04.524Z,11.90
2022-11-23T12:46:11.169Z,11.70
2022-11-23T12:49:02.375Z,11.60
2022-11-23T12:51:41.554Z,11.50
2022-11-23T12:54:24.653Z,11.40
2022-11-23T12:57:03.902Z,11.40
2022-11-23T12:59:43.948Z,11.40
2022-11-23T13:02:26.612Z,11.30
2022-11-23T13:05:22.627Z,11.30
2022-11-23T13:08:05.657Z,11.20
2022-11-23T13:10:52.942Z,11.20
2022-11-23T13:13:43.928Z,11.20
2022-11-23T13:16:25.359Z,11.20
2022-11-23T13:19:09.960Z,11.20
2022-11-23T13:21:40.551Z,11.10
2022-11-23T13:24:27.686Z,11.10
2022-11-23T13:27:31.512Z,11.10
2022-11-23T13:30:11.025Z,11.10
2022-11-23T13:32:57.444Z,11.10
2022-11-23T13:35:56.863Z,11.10
2022-11-23T13:38:36.380Z,11.10
2022-11-23T13:41:04.823Z,11.10
2022-11-23T13:43:37.320Z,11.10
2022-11-23T13:46:26.776Z,11.10
2022-11-23T13:48:57.785Z,10.90
2022-11-23T13:51:28.654Z,10.70
2022-11-23T13:54:02.509Z,10.50
2022-11-23T13:56:36.538Z,10.40
2022-11-23T13:59:28.451Z,10.20
2022-11-23T14:02:29.259Z,10.10
2022-11-23T14:05:33.657Z,10.00
2022-11-23T14:08:04.714Z,10.00
2022-11-23T14:10:33.713Z,9.90
2022-11-23T14:13:05.704Z,9.90
2022-11-23T14:15:35.843Z,9.90
2022-11-23T14:18:41.107Z,9.80
2022-11-23T14:21:14.479Z,9.90
2022-11-23T14:24:15.552Z,9.80
2022-11-23T14:26:53.002Z,9.80
2022-11-23T14:29:53.890Z,9.70
2022-11-23T14:32:32.923Z,9.70
2022-11-23T14:35:17.804Z,9.70
2022-11-23T14:38:01.469Z,9.70
2022-11-23T14:40:39.004Z,9.70
2022-11-23T14:43:19.067Z,9.70
2022-11-23T14:45:48.624Z,9.60
2022-11-23T14:48:24.708Z,9.60
2022-11-23T14:50:58.459Z,9.60
2022-11-23T14:53:30.436Z,9.60
2022-11-23T14:56:00.603Z,9.60
2022-11-23T14:58:32.517Z,9.50
2022-11-23T15:01:02.075Z,9.50
2022-11-23T15:06:25.472Z,9.50
2022-11-23T15:09:01.008Z,9.50
2022-11-23T15:11:32.773Z,9.40
2022-11-23T15:14:03.880Z,9.40
2022-11-23T15:16:42.515Z,9.40
2022-11-23T15:19:27.180Z,9.40
2022-11-23T15:21:55.532Z,9.40
2022-11-23T15:24:25.431Z,9.40
2022-11-23T15:26:59.515Z,9.40
2022-11-23T15:29:35.612Z,9.40
2022-11-23T15:34:56.553Z,9.40
2022-11-23T15:37:26.100Z,9.40
2022-11-23T15:39:56.332Z,9.40
2022-11-23T15:42:26.803Z,9.40
2022-11-23T15:44:55.870Z,9.40
2022-11-23T15:47:28.417Z,9.40
2022-11-23T15:50:02.574Z,9.40
2022-11-23T15:52:35.919Z,9.40
2022-11-23T15:55:09.834Z,9.40
2022-11-23T15:57:41.262Z,9.40
2022-11-23T16:00:22.715Z,9.40
2022-11-23T16:02:51.864Z,9.40
2022-11-23T16:05:23.387Z,9.40
2022-11-23T16:07:54.401Z,9.40
2022-11-23T16:10:24.672Z,9.40
2022-11-23T16:12:55.825Z,9.40
2022-11-23T16:15:41.870Z,9.40
2022-11-23T16:18:23.299Z,9.30
2022-11-23T16:20:54.711Z,9.40
2022-11-23T16:23:25.849Z,9.30
2022-11-23T16:26:00.083Z,9.30
2022-11-23T16:28:31.880Z,9.40
2022-11-23T16:31:01.384Z,9.40
2022-11-23T16:33:30.454Z,9.40
2022-11-23T16:35:59.170Z,9.40
2022-11-23T16:38:27.797Z,9.40
2022-11-23T16:40:56.550Z,9.40
2022-11-23T16:43:25.310Z,9.40
2022-11-23T16:45:56.340Z,9.40
2022-11-23T16:48:43.709Z,9.40
2022-11-23T16:51:14.577Z,9.40
2022-11-23T16:54:11.939Z,9.50
2022-11-23T16:56:33.422Z,9.50
2022-11-23T16:59:02.138Z,9.50
2022-11-23T17:01:33.828Z,9.50
2022-11-23T17:04:02.465Z,9.50
2022-11-23T17:06:31.298Z,9.50
2022-11-23T17:09:06.401Z,9.50
2022-11-23T17:11:38.516Z,9.50
2022-11-23T17:14:08.023Z,9.50
2022-11-23T17:16:38.867Z,9.60
2022-11-23T17:19:12.030Z,9.50
2022-11-23T17:21:40.391Z,9.60
2022-11-23T17:24:09.068Z,9.50
2022-11-23T17:26:39.954Z,9.50
2022-11-23T17:29:14.218Z,9.50
2022-11-23T17:31:45.666Z,9.50
2022-11-23T17:34:14.779Z,9.50
2022-11-23T17:36:45.625Z,9.50
2022-11-23T17:39:19.194Z,9.50
2022-11-23T17:41:48.392Z,9.40
2022-11-23T17:44:17.873Z,9.40
2022-11-23T17:46:49.004Z,9.40
2022-11-23T17:49:21.158Z,9.40
2022-11-23T17:51:49.756Z,9.40
2022-11-23T17:54:18.305Z,9.30
2022-11-23T17:56:46.868Z,9.30
2022-11-23T17:59:15.782Z,9.30
2022-11-23T18:01:44.397Z,9.30
2022-11-23T18:04:14.532Z,9.30
2022-11-23T18:06:43.219Z,9.30
2022-11-23T18:09:12.322Z,9.20
2022-11-23T18:11:40.806Z,9.20
2022-11-23T18:14:09.436Z,9.20
2022-11-23T18:16:38.034Z,9.20
2022-11-23T18:19:06.573Z,9.10
2022-11-23T18:21:36.694Z,9.10
2022-11-23T18:24:05.799Z,9.10
2022-11-23T18:26:34.532Z,9.10
2022-11-23T18:29:04.062Z,9.10
2022-11-23T18:31:32.899Z,9.10
2022-11-23T18:34:02.866Z,9.00
2022-11-23T18:36:31.987Z,9.00
2022-11-23T18:39:02.249Z,9.00
2022-11-23T18:41:31.091Z,9.00
2022-11-23T18:43:59.569Z,9.00
2022-11-23T18:46:29.713Z,8.90
2022-11-23T18:48:58.741Z,8.90
2022-11-23T18:51:27.420Z,8.90
2022-11-23T18:53:56.117Z,8.90
2022-11-23T18:56:25.992Z,8.80
2022-11-23T18:58:55.736Z,8.80
2022-11-23T19:01:25.449Z,8.80
2022-11-23T19:03:54.626Z,8.70
2022-11-23T19:06:24.694Z,8.70
2022-11-23T19:08:54.714Z,8.70
2022-11-23T19:11:26.800Z,8.70
2022-11-23T19:13:57.820Z,8.70
2022-11-23T19:16:29.123Z,8.60
2022-11-23T19:18:59.064Z,8.60
2022-11-23T19:21:29.029Z,8.60
2022-11-23T19:23:58.510Z,8.60
2022-11-23T19:26:30.329Z,8.60
2022-11-23T19:28:59.593Z,8.50
2022-11-23T19:31:30.022Z,8.50
2022-11-23T19:34:01.137Z,8.50
2022-11-23T19:36:30.880Z,8.50
2022-11-23T19:39:00.777Z,8.50
2022-11-23T19:41:31.321Z,8.50
2022-11-23T19:44:01.339Z,8.40
2022-11-23T19:46:31.144Z,8.50
2022-11-23T19:49:00.381Z,8.50
2022-11-23T19:51:29.670Z,8.50
2022-11-23T19:54:01.157Z,8.50
2022-11-23T19:56:31.349Z,8.40
2022-11-23T19:59:01.264Z,8.40
2022-11-23T20:01:32.322Z,8.40
2022-11-23T20:04:08.707Z,8.40
2022-11-23T20:06:51.768Z,8.40
2022-11-23T20:09:21.296Z,8.40
2022-11-23T20:11:52.119Z,8.40
2022-11-23T20:14:21.235Z,8.40
2022-11-23T20:16:50.060Z,8.40
2022-11-23T20:19:18.604Z,8.30
2022-11-23T20:21:47.040Z,8.30
2022-11-23T20:24:15.854Z,8.30
2022-11-23T20:26:44.289Z,8.30
2022-11-23T20:29:14.845Z,8.40
2022-11-23T20:31:43.147Z,8.40
2022-11-23T20:34:16.700Z,8.40
2022-11-23T20:36:48.162Z,8.40
2022-11-23T20:39:16.245Z,8.40
2022-11-23T20:41:45.071Z,8.40
2022-11-23T20:44:15.458Z,8.40
2022-11-23T20:49:33.236Z,8.50
2022-11-23T20:52:01.903Z,8.40
2022-11-23T20:54:30.297Z,8.40
2022-11-23T20:57:00.300Z,8.40
2022-11-23T20:59:30.253Z,8.40
2022-11-23T21:01:58.497Z,8.50
2022-11-23T21:04:26.799Z,8.50
2022-11-23T21:06:55.107Z,8.50
2022-11-23T21:09:23.018Z,8.60
2022-11-23T21:12:08.777Z,8.60
2022-11-23T21:14:38.304Z,8.60
2022-11-23T21:17:06.663Z,8.60
2022-11-23T21:19:36.526Z,8.60
2022-11-23T21:22:06.828Z,8.60
2022-11-23T21:24:36.039Z,8.60
2022-11-23T21:27:05.214Z,8.60
2022-11-23T21:29:33.422Z,8.60
2022-11-23T21:32:02.890Z,8.70
2022-11-23T21:34:32.309Z,8.70
2022-11-23T21:37:01.129Z,8.70
2022-11-23T21:39:31.046Z,8.60
2022-11-23T21:41:59.260Z,8.70
2022-11-23T21:44:27.339Z,8.60
2022-11-23T21:46:55.718Z,8.70
2022-11-23T21:49:27.580Z,8.80
2022-11-23T21:51:55.773Z,8.70
2022-11-23T21:54:23.884Z,8.70
2022-11-23T21:56:52.175Z,8.70
2022-11-23T21:59:20.276Z,8.70
2022-11-23T22:01:48.577Z,8.70
2022-11-23T22:04:17.167Z,8.70
2022-11-23T22:06:46.798Z,8.70
2022-11-23T22:09:15.350Z,8.60
2022-11-23T22:11:44.861Z,8.60
2022-11-23T22:14:14.334Z,8.60
2022-11-23T22:16:44.499Z,8.60
2022-11-23T22:19:13.762Z,8.60
2022-11-23T22:21:43.351Z,8.60
2022-11-23T22:24:16.125Z,8.60
2022-11-23T22:26:44.856Z,8.70
2022-11-23T22:29:13.513Z,8.60
2022-11-23T22:31:43.536Z,8.70
2022-11-23T22:34:13.424Z,8.70
2022-11-23T22:36:41.888Z,8.70
2022-11-23T22:39:11.177Z,8.70
2022-11-23T22:41:41.052Z,8.80
2022-11-23T22:44:11.045Z,8.80
2022-11-23T22:46:40.212Z,8.80
2022-11-23T22:49:09.091Z,8.80
2022-11-23T22:51:37.620Z,8.80
2022-11-23T22:54:06.176Z,8.80
2022-11-23T22:56:34.755Z,8.80
2022-11-23T22:59:04.592Z,8.80
2022-11-23T23:01:33.359Z,8.80
2022-11-23T23:04:03.192Z,8.90
2022-11-23T23:06:35.021Z,8.90
2022-11-23T23:09:04.317Z,8.80
2022-11-23T23:11:33.813Z,8.80
2022-11-23T23:14:02.297Z,8.70
2022-11-23T23:16:32.169Z,8.80
2022-11-23T23:19:00.629Z,8.80
2022-11-23T23:21:30.152Z,8.90
2022-11-23T23:24:01.034Z,8.80
2022-11-23T23:26:30.144Z,8.90
2022-11-23T23:28:59.986Z,8.90
2022-11-23T23:31:29.993Z,8.90
2022-11-23T23:34:00.792Z,8.90
2022-11-23T23:36:29.658Z,9.00
2022-11-23T23:38:58.621Z,9.00
2022-11-23T23:41:26.907Z,9.00
2022-11-23T23:43:55.213Z,9.00
2022-11-23T23:46:23.596Z,9.00
2022-11-23T23:48:51.937Z,9.00
2022-11-23T23:51:23.368Z,9.10
2022-11-23T23:53:52.840Z,9.20
2022-11-23T23:56:23.324Z,9.20
2022-11-23T23:58:53.281Z,9.20
